Time;durP1;ratioP1;P1;durP2;ratioP2;P2;SDS_P1;SDS_P2;PMS_P1;PMS_P2;Temp;Humidity;BMP_temperature;BMP_pressure;BME280_temperature;BME280_humidity;BME280_pressure;Samples;Min_cycle;Max_cycle;Signal;HPM_P1;HPM_P2
2023/04/03 00:00:57;;;;;;;1.63;0.80;;;4.60;99.90;;;;;;4992894;28;20031;-91
2023/04/03 00:03:24;;;;;;;1.35;0.82;;;4.60;99.90;;;;;;4985068;28;20057;-90
2023/04/03 00:05:50;;;;;;;2.92;0.80;;;4.60;99.90;;;;;;4983107;28;20389;-90
2023/04/03 00:08:16;;;;;;;2.15;0.90;;;4.50;99.90;;;;;;4977084;28;20039;-91
2023/04/03 00:10:41;;;;;;;2.03;0.90;;;4.50;99.90;;;;;;4982137;28;21205;-91
2023/04/03 00:13:08;;;;;;;2.95;1.00;;;4.50;99.90;;;;;;4982994;28;20031;-90
2023/04/03 00:15:35;;;;;;;2.72;1.02;;;4.50;99.90;;;;;;4962890;28;20038;-90
2023/04/03 00:18:01;;;;;;;2.40;1.13;;;4.40;99.90;;;;;;4962513;28;20233;-90
2023/04/03 00:20:28;;;;;;;2.78;0.93;;;4.40;99.90;;;;;;4992211;28;20101;-91
2023/04/03 00:22:55;;;;;;;1.95;0.88;;;4.40;99.90;;;;;;4976638;28;20081;-91
2023/04/03 00:25:21;;;;;;;1.70;0.80;;;4.40;99.90;;;;;;4991191;28;20062;-91
2023/04/03 00:27:47;;;;;;;1.83;0.90;;;4.40;99.90;;;;;;4993112;28;20030;-92
2023/04/03 00:30:18;;;;;;;2.00;0.80;;;4.30;99.90;;;;;;4975276;28;20033;-90
2023/04/03 00:32:44;;;;;;;1.95;0.95;;;4.30;99.90;;;;;;4991622;28;20110;-90
2023/04/03 00:35:10;;;;;;;2.38;0.80;;;4.30;99.90;;;;;;4992837;28;20058;-90
2023/04/03 00:37:37;;;;;;;1.83;0.60;;;4.30;99.90;;;;;;4992507;28;20264;-89
2023/04/03 00:40:03;;;;;;;3.42;1.02;;;4.30;99.90;;;;;;5009004;28;20027;-90
2023/04/03 00:42:29;;;;;;;2.97;0.90;;;4.30;99.90;;;;;;4994757;28;20057;-90
2023/04/03 00:44:55;;;;;;;1.73;0.80;;;4.20;99.90;;;;;;4992922;28;20035;-90
2023/04/03 00:47:23;;;;;;;6.97;0.88;;;4.20;99.90;;;;;;5010688;28;20036;-90
2023/04/03 00:49:50;;;;;;;2.15;1.00;;;4.20;99.90;;;;;;4995287;28;20145;-90
2023/04/03 00:52:19;;;;;;;2.38;0.80;;;4.20;99.90;;;;;;4975459;28;20117;-89
2023/04/03 00:54:47;;;;;;;3.47;0.90;;;4.20;99.90;;;;;;5003115;28;20117;-91
2023/04/03 00:57:17;;;;;;;3.47;0.93;;;4.20;99.90;;;;;;4994749;28;20494;-91
2023/04/03 00:59:54;;;;;;;1.42;0.80;;;4.20;99.90;;;;;;4994825;28;20030;-90
2023/04/03 01:02:21;;;;;;;1.58;0.77;;;4.20;99.90;;;;;;4990613;28;20039;-88
2023/04/03 01:04:49;;;;;;;2.75;1.13;;;4.10;99.90;;;;;;4975485;28;20058;-91
2023/04/03 01:07:26;;;;;;;3.22;1.00;;;4.10;99.90;;;;;;5022796;28;20371;-90
2023/04/03 01:09:57;;;;;;;2.38;0.73;;;4.10;99.90;;;;;;5001617;28;20068;-91
2023/04/03 01:12:22;;;;;;;2.85;1.00;;;4.10;99.90;;;;;;4998782;28;20485;-90
2023/04/03 01:15:02;;;;;;;2.50;0.75;;;4.10;99.90;;;;;;5010929;28;20041;-90
2023/04/03 01:17:30;;;;;;;2.83;1.00;;;4.10;99.90;;;;;;5011361;28;20140;-90
2023/04/03 01:20:30;;;;;;;4.20;1.10;;;4.00;99.90;;;;;;5009132;28;20108;-89
2023/04/03 01:23:23;;;;;;;3.22;1.23;;;4.10;99.90;;;;;;4992427;28;20068;-89
2023/04/03 01:25:52;;;;;;;3.92;1.10;;;4.00;99.90;;;;;;5009942;28;20033;-90
2023/04/03 01:28:32;;;;;;;3.80;0.80;;;4.00;99.90;;;;;;4994768;28;20030;-90
2023/04/03 01:31:05;;;;;;;1.40;0.70;;;4.00;99.90;;;;;;4992153;28;20066;-90
2023/04/03 01:33:35;;;;;;;;;;;3.90;99.90;;;;;;4995653;28;20036;-91
2023/04/03 01:36:01;;;;;;;2.60;1.35;;;3.90;99.90;;;;;;4994778;28;19921;-89
2023/04/03 01:38:27;;;;;;;1.98;1.00;;;3.80;99.90;;;;;;4989755;28;20057;-89
2023/04/03 01:40:52;;;;;;;2.90;1.00;;;3.80;99.90;;;;;;4980299;28;20132;-90
2023/04/03 01:43:19;;;;;;;4.35;1.27;;;3.80;99.90;;;;;;4995131;28;20029;-90
2023/04/03 01:45:46;;;;;;;2.22;0.80;;;3.80;99.90;;;;;;4977895;28;20502;-91
2023/04/03 01:48:13;;;;;;;3.20;0.90;;;3.80;99.90;;;;;;4976633;28;20545;-89
2023/04/03 01:50:39;;;;;;;2.88;0.85;;;3.80;99.90;;;;;;5005927;28;20034;-91
2023/04/03 01:53:05;;;;;;;1.40;0.70;;;3.80;99.90;;;;;;4994029;28;20037;-90
2023/04/03 01:55:32;;;;;;;3.28;0.93;;;3.70;99.90;;;;;;4990915;28;20081;-90
2023/04/03 01:57:59;;;;;;;5.70;1.10;;;3.70;99.90;;;;;;4993885;28;20053;-92
2023/04/03 02:00:26;;;;;;;2.65;0.80;;;3.70;99.90;;;;;;4996079;28;20037;-90
2023/04/03 02:02:52;;;;;;;3.20;1.08;;;3.70;99.90;;;;;;4991595;28;20077;-89
2023/04/03 02:05:18;;;;;;;1.75;0.75;;;3.70;99.90;;;;;;4989950;28;20296;-89
2023/04/03 02:07:45;;;;;;;2.20;0.80;;;3.60;99.90;;;;;;4996528;28;20105;-91
2023/04/03 02:10:11;;;;;;;2.88;1.00;;;3.60;99.90;;;;;;4977177;28;20417;-90
2023/04/03 02:12:37;;;;;;;3.20;0.90;;;3.60;99.90;;;;;;4993927;28;20071;-89
2023/04/03 02:15:05;;;;;;;2.95;0.93;;;3.60;99.90;;;;;;4994340;28;20501;-90
2023/04/03 02:17:31;;;;;;;3.45;0.90;;;3.60;99.90;;;;;;5013052;28;20497;-88
2023/04/03 02:19:56;;;;;;;2.90;0.77;;;3.60;99.90;;;;;;4995437;28;20038;-88
2023/04/03 02:22:23;;;;;;;1.33;0.70;;;3.60;99.90;;;;;;4994049;28;20373;-89
2023/04/03 02:24:49;;;;;;;2.78;0.90;;;3.60;99.90;;;;;;4977514;28;20060;-89
2023/04/03 02:27:19;;;;;;;1.63;0.70;;;3.60;99.90;;;;;;5012992;28;20041;-89
2023/04/03 02:29:45;;;;;;;2.80;1.10;;;3.50;99.90;;;;;;5009080;28;20033;-90
2023/04/03 02:32:10;;;;;;;2.42;0.90;;;3.50;99.90;;;;;;4994378;28;20080;-89
2023/04/03 02:34:36;;;;;;;2.30;0.90;;;3.50;99.90;;;;;;5009674;28;20044;-90
2023/04/03 02:37:02;;;;;;;2.45;0.90;;;3.40;99.90;;;;;;5003869;28;20104;-90
2023/04/03 02:39:30;;;;;;;2.60;0.70;;;3.40;99.90;;;;;;5009741;28;20110;-90
2023/04/03 02:41:56;;;;;;;1.92;1.00;;;3.40;99.90;;;;;;4994326;28;20022;-89
2023/04/03 02:44:23;;;;;;;1.92;0.70;;;3.40;99.90;;;;;;4996035;28;20030;-92
2023/04/03 02:47:02;;;;;;;1.88;0.88;;;3.40;99.90;;;;;;4996415;28;20053;-91
2023/04/03 02:49:28;;;;;;;2.55;0.70;;;3.30;99.90;;;;;;4987704;28;20030;-91
2023/04/03 02:51:55;;;;;;;3.30;0.80;;;3.30;99.90;;;;;;4989216;28;20026;-90
2023/04/03 02:54:23;;;;;;;2.17;0.80;;;3.30;99.90;;;;;;5005242;28;20486;-90
2023/04/03 02:56:51;;;;;;;2.90;0.85;;;3.30;99.90;;;;;;4989577;28;20033;-91
2023/04/03 02:59:16;;;;;;;2.60;0.75;;;3.30;99.90;;;;;;4986358;28;20474;-89
2023/04/03 03:01:46;;;;;;;1.90;0.70;;;3.30;99.90;;;;;;4989568;28;20026;-91
2023/04/03 03:04:12;;;;;;;1.13;0.60;;;3.20;99.90;;;;;;5008579;28;20064;-90
2023/04/03 03:06:38;;;;;;;3.15;0.90;;;3.20;99.90;;;;;;4989793;28;20036;-90
2023/04/03 03:09:05;;;;;;;2.00;0.77;;;3.20;99.90;;;;;;5006482;28;20022;-89
2023/04/03 03:11:31;;;;;;;2.25;0.80;;;3.20;99.90;;;;;;4993813;28;20022;-91
2023/04/03 03:13:58;;;;;;;2.03;0.60;;;3.20;99.90;;;;;;4992906;28;20415;-90
2023/04/03 03:16:25;;;;;;;2.88;0.65;;;3.10;99.90;;;;;;5011431;28;20462;-91
2023/04/03 03:18:53;;;;;;;1.45;0.70;;;3.10;99.90;;;;;;4988496;28;20068;-90
2023/04/03 03:21:20;;;;;;;2.53;1.00;;;3.10;99.90;;;;;;5005379;28;20034;-91
2023/04/03 03:23:47;;;;;;;3.97;1.10;;;3.10;99.90;;;;;;4988714;28;20032;-90
2023/04/03 03:26:13;;;;;;;2.42;0.82;;;3.10;99.90;;;;;;5012805;28;20084;-88
2023/04/03 03:28:40;;;;;;;3.63;0.90;;;3.10;99.90;;;;;;4995336;28;20108;-89
2023/04/03 03:31:06;;;;;;;1.45;0.68;;;3.00;99.90;;;;;;5009544;28;20059;-89
2023/04/03 03:33:33;;;;;;;5.15;0.80;;;3.00;99.90;;;;;;5012144;28;20022;-89
2023/04/03 03:36:01;;;;;;;2.67;0.80;;;3.00;99.90;;;;;;4994571;28;20038;-89
2023/04/03 03:38:30;;;;;;;2.63;0.80;;;3.00;99.90;;;;;;4988731;28;20113;-90
2023/04/03 03:40:56;;;;;;;1.48;0.65;;;3.00;99.90;;;;;;4992365;28;20033;-89
2023/04/03 03:43:27;;;;;;;2.50;1.00;;;3.00;99.90;;;;;;5011960;28;20185;-89
2023/04/03 03:45:53;;;;;;;2.47;0.90;;;3.00;99.90;;;;;;4992706;28;20470;-89
2023/04/03 03:48:21;;;;;;;4.55;0.98;;;2.90;99.90;;;;;;4991731;28;20116;-89
2023/04/03 03:50:47;;;;;;;4.50;1.30;;;2.90;99.90;;;;;;4987024;28;20042;-89
2023/04/03 03:53:14;;;;;;;2.88;0.80;;;2.90;99.90;;;;;;5003522;28;20033;-89
2023/04/03 03:55:41;;;;;;;3.63;0.95;;;2.90;99.90;;;;;;4992453;28;20125;-89
2023/04/03 03:58:07;;;;;;;3.05;1.10;;;2.90;99.90;;;;;;4993474;28;20084;-89
2023/04/03 04:00:35;;;;;;;3.10;1.10;;;2.80;99.90;;;;;;4994314;28;20112;-89
2023/04/03 04:03:04;;;;;;;2.60;0.82;;;2.90;99.90;;;;;;4997905;28;20117;-90
2023/04/03 04:05:30;;;;;;;3.00;0.90;;;2.80;99.90;;;;;;4998802;28;20045;-90
2023/04/03 04:07:57;;;;;;;2.20;1.00;;;2.80;99.90;;;;;;4998271;28;20030;-90
2023/04/03 04:10:23;;;;;;;2.63;0.95;;;2.80;99.90;;;;;;4994380;28;20093;-89
2023/04/03 04:12:51;;;;;;;2.22;0.70;;;2.80;99.90;;;;;;4999002;28;20021;-90
2023/04/03 04:15:21;;;;;;;2.38;0.70;;;2.70;99.90;;;;;;5014548;28;20030;-89
2023/04/03 04:17:47;;;;;;;2.65;0.90;;;2.70;99.90;;;;;;4996224;28;20414;-91
2023/04/03 04:20:13;;;;;;;2.80;0.90;;;2.70;99.90;;;;;;4998021;28;20029;-90
2023/04/03 04:22:39;;;;;;;3.83;1.10;;;2.60;99.90;;;;;;4994325;28;20399;-91
2023/04/03 04:25:06;;;;;;;3.95;0.98;;;2.60;99.90;;;;;;4992043;28;20029;-89
2023/04/03 04:27:32;;;;;;;3.38;1.10;;;2.60;99.90;;;;;;4979514;28;20125;-90
2023/04/03 04:29:57;;;;;;;3.20;1.00;;;2.60;99.90;;;;;;4999925;28;20113;-90
2023/04/03 04:32:25;;;;;;;2.70;0.93;;;2.60;99.90;;;;;;4993184;28;20033;-90
2023/04/03 04:34:51;;;;;;;4.13;0.90;;;2.50;99.90;;;;;;4996727;28;20022;-90
2023/04/03 04:37:17;;;;;;;2.55;0.90;;;2.50;99.90;;;;;;4996648;28;20046;-90
2023/04/03 04:39:43;;;;;;;3.03;1.30;;;2.50;99.90;;;;;;5022960;28;20049;-89
2023/04/03 04:42:12;;;;;;;4.00;1.25;;;2.50;99.90;;;;;;4998098;28;20404;-91
2023/04/03 04:44:39;;;;;;;2.45;1.10;;;2.50;99.90;;;;;;4991317;28;20080;-89
2023/04/03 04:47:05;;;;;;;2.22;0.90;;;2.40;99.90;;;;;;5008652;28;20030;-89
2023/04/03 04:49:32;;;;;;;4.13;1.08;;;2.40;99.90;;;;;;4991094;28;20030;-89
2023/04/03 04:51:59;;;;;;;1.48;0.90;;;2.40;99.90;;;;;;4996567;28;20585;-91
2023/04/03 04:54:25;;;;;;;5.07;1.23;;;2.40;99.90;;;;;;4994626;28;20033;-91
2023/04/03 04:56:52;;;;;;;2.42;0.95;;;2.30;99.90;;;;;;4995013;28;20505;-89
2023/04/03 04:59:18;;;;;;;4.47;1.10;;;2.30;99.90;;;;;;4993047;28;20390;-90
2023/04/03 05:01:44;;;;;;;2.88;1.00;;;2.30;99.90;;;;;;4996131;28;20018;-90
2023/04/03 05:04:12;;;;;;;3.20;1.33;;;2.30;99.90;;;;;;4994069;28;20050;-89
2023/04/03 05:06:40;;;;;;;2.50;0.88;;;2.30;99.90;;;;;;4996831;28;20076;-90
2023/04/03 05:09:06;;;;;;;2.85;0.80;;;2.20;99.90;;;;;;4994482;28;20057;-91
2023/04/03 05:11:35;;;;;;;4.60;1.08;;;2.20;99.90;;;;;;4994985;28;20129;-90
2023/04/03 05:14:06;;;;;;;3.50;0.90;;;2.20;99.90;;;;;;4992431;28;20121;-90
2023/04/03 05:16:33;;;;;;;3.20;0.93;;;2.20;99.90;;;;;;4993188;28;20061;-90
2023/04/03 05:19:00;;;;;;;2.55;1.00;;;2.20;99.90;;;;;;5009208;28;20061;-89
2023/04/03 05:21:27;;;;;;;2.67;0.98;;;2.20;99.90;;;;;;4995832;28;20109;-90
2023/04/03 05:23:54;;;;;;;4.95;1.45;;;2.20;99.90;;;;;;4996121;28;20017;-89
2023/04/03 05:26:20;;;;;;;2.35;1.08;;;2.20;99.90;;;;;;4972747;28;20449;-90
2023/04/03 05:28:47;;;;;;;4.00;1.30;;;2.20;99.90;;;;;;4994089;28;20113;-88
2023/04/03 05:31:14;;;;;;;4.22;1.00;;;2.20;99.90;;;;;;4994879;28;20069;-90
2023/04/03 05:33:43;;;;;;;4.28;1.08;;;2.20;99.90;;;;;;5009980;28;20038;-89
2023/04/03 05:36:09;;;;;;;3.45;1.65;;;2.10;99.90;;;;;;4993216;28;20509;-90
2023/04/03 05:38:39;;;;;;;3.83;1.13;;;2.10;99.90;;;;;;4994414;28;20096;-90
2023/04/03 05:41:06;;;;;;;3.13;1.20;;;2.10;99.90;;;;;;4991570;28;20080;-87
2023/04/03 05:43:34;;;;;;;6.18;1.23;;;2.10;99.90;;;;;;5007470;28;20026;-92
2023/04/03 05:46:02;;;;;;;5.47;1.25;;;2.10;99.90;;;;;;4996347;28;20014;-89
2023/04/03 05:48:33;;;;;;;4.93;1.30;;;2.10;99.90;;;;;;5022002;28;20042;-89
2023/04/03 05:51:01;;;;;;;3.17;1.05;;;2.20;99.90;;;;;;4996377;28;20084;-92
2023/04/03 05:53:29;;;;;;;4.60;1.05;;;2.20;99.90;;;;;;4990052;28;20101;-90
2023/04/03 05:55:56;;;;;;;2.75;0.93;;;2.10;99.90;;;;;;4985591;28;20046;-90
2023/04/03 05:58:23;;;;;;;3.40;1.33;;;2.20;99.90;;;;;;5008116;28;20038;-91
2023/04/03 06:00:49;;;;;;;3.90;1.10;;;2.20;99.90;;;;;;4992925;28;20025;-91
2023/04/03 06:03:16;;;;;;;3.55;1.20;;;2.20;99.90;;;;;;4991896;28;20474;-90
2023/04/03 06:05:43;;;;;;;4.95;1.20;;;2.30;99.90;;;;;;4992572;28;20029;-91
2023/04/03 06:08:09;;;;;;;3.47;1.30;;;2.30;99.90;;;;;;5008850;28;20033;-90
2023/04/03 06:10:35;;;;;;;2.40;1.10;;;2.30;99.90;;;;;;4987912;28;20144;-90
2023/04/03 06:13:02;;;;;;;4.75;1.20;;;2.30;99.90;;;;;;4985192;28;20022;-89
2023/04/03 06:15:39;;;;;;;5.70;1.13;;;2.30;99.90;;;;;;4972281;28;20071;-90
2023/04/03 06:18:08;;;;;;;5.30;1.42;;;2.40;99.90;;;;;;4993045;28;22441;-89
2023/04/03 06:20:35;;;;;;;5.05;1.50;;;2.40;99.90;;;;;;4990003;28;20116;-89
2023/04/03 06:23:01;;;;;;;3.80;1.50;;;2.40;99.90;;;;;;4985591;28;20037;-89
2023/04/03 06:25:31;;;;;;;2.17;1.10;;;2.40;99.90;;;;;;4991302;28;20034;-90
2023/04/03 06:27:57;;;;;;;5.65;1.30;;;2.50;99.90;;;;;;4998003;28;20034;-89
2023/04/03 06:30:25;;;;;;;4.78;1.20;;;2.50;99.90;;;;;;4993527;28;20389;-91
2023/04/03 06:32:52;;;;;;;2.45;1.33;;;2.50;99.90;;;;;;4993943;28;20025;-90
2023/04/03 06:35:20;;;;;;;3.03;0.90;;;2.50;99.90;;;;;;5008588;28;20100;-89
2023/04/03 06:37:46;;;;;;;2.53;1.08;;;2.50;99.90;;;;;;4992782;28;20096;-88
2023/04/03 06:40:23;;;;;;;5.82;1.25;;;2.50;99.90;;;;;;4992903;28;20402;-90
2023/04/03 06:42:52;;;;;;;2.83;1.40;;;2.60;99.90;;;;;;5008041;28;20121;-90
2023/04/03 06:45:21;;;;;;;4.22;0.90;;;2.60;99.90;;;;;;4991128;28;20038;-89
2023/04/03 06:47:51;;;;;;;6.65;1.40;;;2.60;99.90;;;;;;4993420;28;20162;-90
2023/04/03 06:50:18;;;;;;;4.30;1.20;;;2.70;99.90;;;;;;4988731;28;20037;-90
2023/04/03 06:52:45;;;;;;;2.63;1.00;;;2.70;99.90;;;;;;5010183;28;20470;-90
2023/04/03 06:55:12;;;;;;;4.85;1.40;;;2.80;99.90;;;;;;4988400;28;20466;-90
2023/04/03 06:57:41;;;;;;;4.15;1.10;;;2.80;99.90;;;;;;4999634;28;20030;-88
2023/04/03 07:00:09;;;;;;;4.05;1.52;;;2.80;99.90;;;;;;5021595;28;20037;-90
2023/04/03 07:02:35;;;;;;;2.75;1.20;;;2.80;99.90;;;;;;4989274;28;20841;-89
2023/04/03 07:05:01;;;;;;;6.90;1.75;;;2.90;99.90;;;;;;5010049;28;20073;-88
2023/04/03 07:07:27;;;;;;;3.03;1.17;;;2.90;99.90;;;;;;4992252;28;20375;-88
2023/04/03 07:09:55;;;;;;;4.53;1.30;;;3.00;99.90;;;;;;4991829;28;20041;-88
2023/04/03 07:12:21;;;;;;;6.43;1.85;;;3.00;99.90;;;;;;4991197;28;20083;-89
2023/04/03 07:14:50;;;;;;;5.25;1.77;;;3.00;99.90;;;;;;4993348;28;20503;-91
2023/04/03 07:17:17;;;;;;;2.88;1.30;;;3.00;99.90;;;;;;4992801;28;20120;-89
2023/04/03 07:19:43;;;;;;;4.82;1.75;;;3.10;99.90;;;;;;4991059;28;20040;-90
2023/04/03 07:22:11;;;;;;;4.15;1.20;;;3.10;99.90;;;;;;5010914;28;20030;-90
2023/04/03 07:24:37;;;;;;;5.70;1.33;;;3.10;99.90;;;;;;4990955;28;20513;-91
2023/04/03 07:27:08;;;;;;;7.50;1.48;;;3.20;99.90;;;;;;4996570;28;20061;-89
2023/04/03 07:29:35;;;;;;;5.28;1.30;;;3.20;99.90;;;;;;4988012;28;20026;-90
2023/04/03 07:32:07;;;;;;;6.07;1.20;;;3.20;99.90;;;;;;4990793;28;20037;-91
2023/04/03 07:34:36;;;;;;;5.20;1.30;;;3.30;99.90;;;;;;4989480;28;20030;-91
2023/04/03 07:37:02;;;;;;;4.55;1.10;;;3.30;99.90;;;;;;4991497;28;20058;-91
2023/04/03 07:39:29;;;;;;;4.70;1.10;;;3.30;99.90;;;;;;5007466;28;20112;-88
2023/04/03 07:41:57;;;;;;;2.90;1.55;;;3.40;99.90;;;;;;4989881;28;20032;-89
2023/04/03 07:44:25;;;;;;;4.32;1.60;;;3.40;99.90;;;;;;4993064;28;20053;-90
2023/04/03 07:46:51;;;;;;;3.45;1.17;;;3.40;99.90;;;;;;4992322;28;20025;-86
2023/04/03 07:49:18;;;;;;;4.28;1.35;;;3.50;99.90;;;;;;5010406;28;20418;-90
2023/04/03 07:51:48;;;;;;;3.35;1.15;;;3.50;99.90;;;;;;4994097;28;20029;-93
2023/04/03 07:54:14;;;;;;;5.85;1.85;;;3.50;99.90;;;;;;5007894;28;20034;-91
2023/04/03 07:56:46;;;;;;;4.18;1.00;;;3.60;99.90;;;;;;4990693;28;20061;-91
2023/04/03 07:59:12;;;;;;;3.33;1.27;;;3.60;99.90;;;;;;4991327;28;20109;-90
2023/04/03 08:01:40;;;;;;;2.55;0.90;;;3.60;99.90;;;;;;4998527;28;20022;-89
2023/04/03 08:04:06;;;;;;;3.08;1.10;;;3.70;99.90;;;;;;5016437;28;20060;-90
2023/04/03 08:06:36;;;;;;;6.20;1.38;;;3.70;99.90;;;;;;5008881;28;20053;-91
2023/04/03 08:09:03;;;;;;;4.97;1.38;;;3.80;99.90;;;;;;4989552;28;20030;-91
2023/04/03 08:11:31;;;;;;;4.70;1.20;;;3.90;99.90;;;;;;4990840;28;20030;-90
2023/04/03 08:13:57;;;;;;;3.92;0.93;;;4.00;99.90;;;;;;4987709;28;20092;-89
2023/04/03 08:16:27;;;;;;;4.75;1.45;;;4.00;99.90;;;;;;5004053;28;20041;-89
2023/04/03 08:18:56;;;;;;;2.92;0.90;;;4.00;99.90;;;;;;5008222;28;20148;-89
2023/04/03 08:21:29;;;;;;;2.97;1.30;;;4.10;99.90;;;;;;4980000;28;20041;-89
2023/04/03 08:23:56;;;;;;;2.55;0.90;;;4.10;99.90;;;;;;4988295;28;20034;-90
2023/04/03 08:26:23;;;;;;;4.57;0.88;;;4.20;99.90;;;;;;5008230;28;20017;-89
2023/04/03 08:28:50;;;;;;;4.82;1.00;;;4.30;99.90;;;;;;4991351;28;20120;-89
2023/04/03 08:31:26;;;;;;;1.73;0.90;;;4.40;99.90;;;;;;4989126;28;20062;-88
2023/04/03 08:33:59;;;;;;;2.05;0.88;;;4.40;99.90;;;;;;4992744;28;20032;-89
2023/04/03 08:36:30;;;;;;;2.30;1.00;;;4.50;99.90;;;;;;4991649;28;20176;-88
2023/04/03 08:38:57;;;;;;;2.75;0.95;;;4.60;99.90;;;;;;4985159;28;20029;-89
2023/04/03 08:41:39;;;;;;;4.50;0.90;;;4.60;99.90;;;;;;5011633;28;20093;-89
2023/04/03 08:44:37;;;;;;;3.25;1.00;;;4.70;99.90;;;;;;4989764;28;20042;-89
2023/04/03 08:47:31;;;;;;;2.85;0.98;;;4.80;99.90;;;;;;5009173;28;20861;-89
2023/04/03 08:50:02;;;;;;;3.27;1.13;;;4.90;99.90;;;;;;4991721;28;20053;-88
2023/04/03 08:52:50;;;;;;;2.70;0.82;;;5.00;99.90;;;;;;5011379;28;20041;-89
2023/04/03 08:55:31;;;;;;;3.10;0.80;;;5.10;99.90;;;;;;4989892;28;20041;-86
2023/04/03 08:58:05;;;;;;;1.30;0.47;;;5.20;99.90;;;;;;5008373;28;20481;-88
2023/04/03 09:01:00;;;;;;;2.55;0.70;;;5.20;99.90;;;;;;5007891;28;20041;-88
2023/04/03 09:03:31;;;;;;;3.05;0.70;;;5.30;99.90;;;;;;4990549;28;20493;-89
2023/04/03 09:06:05;;;;;;;1.23;0.60;;;5.40;99.90;;;;;;5022259;28;20398;-88
2023/04/03 09:08:50;;;;;;;;;;;5.40;99.90;;;;;;5019495;28;20026;-90
2023/04/03 09:11:28;;;;;;;2.45;0.70;;;5.50;99.90;;;;;;5010772;28;19918;-89
2023/04/03 09:14:03;;;;;;;2.17;0.47;;;5.60;99.90;;;;;;4992762;28;20068;-89
2023/04/03 09:17:03;;;;;;;1.85;0.40;;;5.80;99.90;;;;;;4992350;28;20033;-89
2023/04/03 09:19:46;;;;;;;1.98;0.65;;;5.80;99.90;;;;;;4991464;28;20032;-88
2023/04/03 09:22:23;;;;;;;1.80;0.60;;;5.90;99.90;;;;;;5009179;28;20022;-88
2023/04/03 09:24:59;;;;;;;2.00;0.52;;;6.00;99.90;;;;;;4989394;28;20022;-90
2023/04/03 09:27:26;;;;;;;1.63;0.40;;;6.10;99.90;;;;;;4989736;28;20080;-88
2023/04/03 09:29:57;;;;;;;1.50;0.30;;;6.20;99.90;;;;;;4989109;28;20482;-89
2023/04/03 09:32:30;;;;;;;1.95;0.40;;;6.30;99.90;;;;;;4991459;28;20117;-89
2023/04/03 09:35:31;;;;;;;0.68;0.43;;;6.40;99.90;;;;;;5007895;28;20117;-87
2023/04/03 09:38:25;;;;;;;1.15;0.30;;;6.50;99.90;;;;;;4989763;28;20425;-88
2023/04/03 09:41:15;;;;;;;1.58;0.28;;;6.60;99.90;;;;;;5006192;28;20095;-87
2023/04/03 09:43:54;;;;;;;1.17;0.40;;;6.70;99.90;;;;;;5009201;28;20053;-92
2023/04/03 09:46:34;;;;;;;1.15;0.40;;;7.10;99.90;;;;;;5009806;28;20028;-90
2023/04/03 09:49:05;;;;;;;1.77;0.30;;;8.80;99.90;;;;;;5007028;28;20117;-89
2023/04/03 09:51:32;;;;;;;2.15;0.40;;;10.40;99.90;;;;;;4985664;28;20038;-90
2023/04/03 09:53:59;;;;;;;1.83;0.57;;;11.80;99.90;;;;;;5006915;28;20033;-87
2023/04/03 09:56:31;;;;;;;1.45;0.32;;;12.80;99.90;;;;;;4988404;28;20034;-89
2023/04/03 09:59:10;;;;;;;0.68;0.28;;;13.70;99.90;;;;;;5007282;28;20112;-89
2023/04/03 10:01:39;;;;;;;2.03;0.55;;;14.30;99.90;;;;;;5004686;28;20773;-88
2023/04/03 10:04:17;;;;;;;2.28;0.45;;;15.00;99.90;;;;;;4989957;28;20026;-88
2023/04/03 10:06:50;;;;;;;2.08;0.50;;;15.50;99.90;;;;;;4980573;28;20046;-89
2023/04/03 10:09:33;;;;;;;2.80;0.50;;;15.60;98.70;;;;;;5004996;28;20022;-86
2023/04/03 10:12:11;;;;;;;0.95;0.40;;;15.60;97.10;;;;;;5001375;28;20100;-87
2023/04/03 10:14:56;;;;;;;1.20;0.50;;;15.90;97.10;;;;;;4997181;28;20109;-87
2023/04/03 10:17:53;;;;;;;2.35;0.40;;;16.40;96.90;;;;;;5006453;28;20061;-89
2023/04/03 10:20:41;;;;;;;1.30;0.50;;;16.90;95.00;;;;;;4999298;28;20111;-89
2023/04/03 10:23:20;;;;;;;1.35;0.32;;;17.00;93.90;;;;;;4988512;28;20025;-89
2023/04/03 10:26:16;;;;;;;1.73;0.50;;;17.40;93.90;;;;;;5004036;28;20026;-87
2023/04/03 10:29:19;;;;;;;2.30;0.70;;;17.80;93.40;;;;;;4948553;28;20043;-89
2023/04/03 10:32:12;;;;;;;1.63;0.45;;;18.00;92.50;;;;;;5004167;28;20051;-88
2023/04/03 10:34:47;;;;;;;1.17;0.45;;;18.20;92.40;;;;;;4986208;28;20033;-88
2023/04/03 10:37:37;;;;;;;1.33;0.40;;;18.50;92.10;;;;;;5002994;28;20092;-87
2023/04/03 10:40:14;;;;;;;0.55;0.38;;;18.60;91.30;;;;;;5004527;28;20053;-88
2023/04/03 10:43:01;;;;;;;0.85;0.40;;;18.70;89.50;;;;;;5003689;28;20035;-89
2023/04/03 10:45:58;;;;;;;2.28;0.63;;;18.80;90.50;;;;;;4985293;28;20032;-88
2023/04/03 10:48:27;;;;;;;0.82;0.40;;;19.10;87.80;;;;;;4961266;28;20415;-88
2023/04/03 10:51:23;;;;;;;0.80;0.40;;;19.20;88.70;;;;;;4961594;28;20645;-88
2023/04/03 10:54:12;;;;;;;0.88;0.38;;;19.50;89.20;;;;;;4957816;28;20052;-90
2023/04/03 10:57:05;;;;;;;1.92;0.88;;;19.80;88.70;;;;;;4959524;28;20031;-89
2023/04/03 11:00:01;;;;;;;0.75;0.40;;;19.70;85.60;;;;;;4966824;28;20034;-89
2023/04/03 11:02:47;;;;;;;1.80;0.55;;;19.60;83.90;;;;;;4964610;28;20570;-89
2023/04/03 11:05:43;;;;;;;1.40;0.50;;;19.50;82.40;;;;;;4979285;28;20133;-88
2023/04/03 11:08:35;;;;;;;2.80;0.70;;;19.20;80.10;;;;;;4972410;28;20121;-88
2023/04/03 11:11:08;;;;;;;1.10;0.52;;;19.10;80.40;;;;;;4959014;28;20056;-89
2023/04/03 11:13:59;;;;;;;1.30;0.50;;;19.10;80.70;;;;;;4960411;28;20722;-88
2023/04/03 11:16:30;;;;;;;1.05;0.50;;;19.30;80.40;;;;;;4959899;28;20092;-89
2023/04/03 11:19:44;;;;;;;1.05;0.40;;;19.50;80.30;;;;;;4989631;28;20116;-89
2023/04/03 11:22:26;;;;;;;1.52;0.47;;;19.70;79.40;;;;;;4957595;28;20058;-89
2023/04/03 11:25:21;;;;;;;2.25;0.52;;;19.70;77.00;;;;;;4989670;28;20063;-88
2023/04/03 11:28:12;;;;;;;0.98;0.43;;;19.60;77.50;;;;;;5003479;28;20037;-88
2023/04/03 11:31:11;;;;;;;1.35;0.40;;;19.80;77.00;;;;;;4981562;28;20092;-89
2023/04/03 11:33:42;;;;;;;1.50;0.43;;;20.10;77.30;;;;;;4982066;28;20037;-88
2023/04/03 11:36:32;;;;;;;1.67;0.60;;;20.30;76.50;;;;;;4986271;28;20034;-88
2023/04/03 11:39:05;;;;;;;1.92;0.60;;;20.50;75.60;;;;;;4981594;28;20026;-89
2023/04/03 11:41:32;;;;;;;2.13;0.60;;;20.60;76.30;;;;;;5003319;28;20032;-89
2023/04/03 11:44:08;;;;;;;0.88;0.40;;;20.70;76.40;;;;;;4985794;28;20079;-89
2023/04/03 11:46:55;;;;;;;0.93;0.40;;;20.90;76.10;;;;;;4985812;28;20022;-88
2023/04/03 11:50:09;;;;;;;1.40;0.50;;;21.00;75.00;;;;;;4986980;28;20360;-90
2023/04/03 11:52:42;;;;;;;;;;;21.00;74.00;;;;;;4976022;28;20049;-90
2023/04/03 11:55:24;;;;;;;1.25;0.52;;;20.70;73.20;;;;;;4985868;28;19914;-88
2023/04/03 11:58:11;;;;;;;1.52;0.50;;;20.80;74.50;;;;;;4985725;28;20038;-87
2023/04/03 12:00:46;;;;;;;1.42;0.50;;;20.70;71.90;;;;;;4980083;28;20038;-89
2023/04/03 12:03:33;;;;;;;1.25;0.60;;;20.70;71.20;;;;;;5001108;28;20116;-89
2023/04/03 12:06:13;;;;;;;0.95;0.50;;;20.70;71.50;;;;;;5002536;28;20120;-87
2023/04/03 12:08:49;;;;;;;2.28;0.60;;;20.70;70.40;;;;;;5005016;28;20441;-90
2023/04/03 12:11:26;;;;;;;1.05;0.70;;;20.70;71.40;;;;;;5004400;28;20077;-87
2023/04/03 12:14:15;;;;;;;1.20;0.50;;;20.80;71.60;;;;;;5002905;28;20037;-88
2023/04/03 12:16:40;;;;;;;1.35;0.50;;;21.00;71.30;;;;;;5001108;28;20087;-88
2023/04/03 12:19:44;;;;;;;2.50;0.50;;;21.20;71.00;;;;;;5000774;28;20115;-89
2023/04/03 12:22:16;;;;;;;1.77;0.60;;;21.40;70.40;;;;;;4986639;28;20504;-88
2023/04/03 12:24:48;;;;;;;2.78;0.50;;;21.60;70.60;;;;;;5003645;28;20041;-87
2023/04/03 12:27:34;;;;;;;0.80;0.45;;;21.70;70.50;;;;;;5007601;28;20030;-88
2023/04/03 12:30:03;;;;;;;2.22;0.52;;;21.70;69.30;;;;;;4992006;28;20528;-88
2023/04/03 12:33:06;;;;;;;2.75;0.50;;;21.60;69.30;;;;;;4989367;28;20117;-88
2023/04/03 12:36:15;;;;;;;1.05;0.50;;;21.40;68.70;;;;;;5005773;28;20026;-87
2023/04/03 12:39:21;;;;;;;1.70;0.60;;;21.30;68.90;;;;;;4946194;28;20043;-88
2023/04/03 12:42:26;;;;;;;1.27;0.60;;;21.20;68.80;;;;;;4929920;29;20503;-88
2023/04/03 12:45:04;;;;;;;2.97;0.88;;;21.10;68.40;;;;;;5006532;28;20149;-89
2023/04/03 12:47:37;;;;;;;1.75;0.68;;;20.70;66.30;;;;;;4988033;28;20029;-89
2023/04/03 12:50:23;;;;;;;1.77;0.60;;;20.60;67.50;;;;;;4982262;28;20025;-87
2023/04/03 12:53:02;;;;;;;1.92;0.47;;;20.90;67.40;;;;;;5006084;28;20057;-88
2023/04/03 12:55:29;;;;;;;2.15;0.60;;;20.90;68.00;;;;;;4988845;28;20080;-88
2023/04/03 12:58:27;;;;;;;2.05;0.90;;;21.00;68.20;;;;;;4988995;28;20033;-88
2023/04/03 13:01:15;;;;;;;1.40;0.65;;;21.20;68.10;;;;;;4982961;28;20037;-87
2023/04/03 13:03:53;;;;;;;1.80;0.80;;;21.60;68.80;;;;;;5003889;28;20036;-88
2023/04/03 13:06:43;;;;;;;1.38;0.57;;;21.80;68.30;;;;;;4977426;28;20060;-88
2023/04/03 13:09:30;;;;;;;2.25;0.70;;;22.20;68.50;;;;;;5000365;28;20073;-88
2023/04/03 13:12:15;;;;;;;1.80;0.80;;;22.40;67.70;;;;;;4984411;28;20038;-87
2023/04/03 13:14:58;;;;;;;1.23;0.50;;;22.40;68.30;;;;;;4987835;28;20053;-87
2023/04/03 13:17:29;;;;;;;2.03;0.50;;;22.30;67.30;;;;;;4984950;28;20038;-87
2023/04/03 13:20:09;;;;;;;1.42;0.60;;;22.20;67.40;;;;;;4987171;28;20030;-87
2023/04/03 13:22:43;;;;;;;2.03;0.70;;;22.00;65.80;;;;;;4986014;28;20022;-88
2023/04/03 13:25:13;;;;;;;2.75;0.82;;;21.60;65.40;;;;;;5000833;28;20161;-89